Solon Springs, Wisconsin
Current Conditions -  °F | °C
As of 10:15 PM on Wednesday 26 Nov 2014 (Local Time) from KOLG Reporting Station
Scattered Clouds Scattered Clouds  
Wind Chill: -6°   Ceiling: Unl
Heat Index:   Visibility: 10mi
Dew Point:   Wind: 8mph
Humidity: 79%   Direction: 320°NW
Pressure: 30.34"   Gusts: NA
Location:  46.35°N, 91.82°W
Report Text: KOLG 270415Z AUTO 32007KT 10SM SCT060 M14/M17 A3034 RMK AO1
Loading
Personal Weather Stations






























Interactive Weather Map New forecast layout! Learn more

10-Day Weather Forecast

Advertisements
Track Severe Weather on mobile